Time;durP1;ratioP1;P1;durP2;ratioP2;P2;SDS_P1;SDS_P2;PMS_P1;PMS_P2;Temp;Humidity;BMP_temperature;BMP_pressure;BME280_temperature;BME280_humidity;BME280_pressure;Samples;Min_cycle;Max_cycle;Signal;HPM_P1;HPM_P2
2024/01/30 00:00:00;;;;;;;0.00;0.00;;;;;;;8.80;100.00;100765.00;6050320;23;20034;-76
2024/01/30 00:02:28;;;;;;;0.00;0.00;;;;;;;8.82;100.00;100767.47;6049603;23;20046;-78
2024/01/30 00:05:04;;;;;;;;;;;;;;;;;;;;;
2024/01/30 00:07:30;;;;;;;0.00;0.00;;;;;;;8.53;100.00;100768.34;6077437;23;20074;-75
2024/01/30 00:10:10;;;;;;;0.10;0.10;;;;;;;8.60;100.00;100754.56;6094964;23;20033;-76
2024/01/30 00:12:41;;;;;;;0.10;0.10;;;;;;;8.46;100.00;100756.75;6099944;23;20003;-76
2024/01/30 00:15:10;;;;;;;0.00;0.00;;;;;;;8.39;100.00;100747.88;6069423;23;20132;-76
2024/01/30 00:17:41;;;;;;;0.10;0.10;;;;;;;8.72;100.00;100807.13;6073545;23;20038;-77
2024/01/30 00:20:10;;;;;;;0.00;0.00;;;;;;;8.63;100.00;100796.84;6071084;23;20009;-76
2024/01/30 00:22:36;;;;;;;0.00;0.00;;;;;;;8.48;100.00;100789.22;6075484;23;20034;-76
2024/01/30 00:25:01;;;;;;;0.03;0.03;;;;;;;8.54;100.00;100799.97;6100244;23;20013;-76
2024/01/30 00:27:31;;;;;;;0.00;0.00;;;;;;;8.35;100.00;100760.31;6074825;23;20034;-76
2024/01/30 00:30:09;;;;;;;;;;;;;;;;;;;;;
2024/01/30 00:32:35;;;;;;;0.10;0.10;;;;;;;8.35;100.00;100760.31;6079854;23;20042;-76
2024/01/30 00:35:13;;;;;;;;;;;;;;;;;;;;;
2024/01/30 00:37:39;;;;;;;0.00;0.00;;;;;;;8.30;100.00;100782.84;6100063;23;20030;-75
2024/01/30 00:40:07;;;;;;;0.00;0.00;;;;;;;8.37;100.00;100794.44;6074586;23;20003;-74
2024/01/30 00:42:45;;;;;;;0.00;0.00;;;;;;;8.55;100.00;100814.44;6050269;23;20011;-75
2024/01/30 00:45:34;;;;;;;0.00;0.00;;;;;;;8.55;100.00;100814.44;6078075;23;20007;-76
2024/01/30 00:48:33;;;;;;;0.00;0.00;;;;;;;8.64;100.00;100831.22;6028156;23;20088;-76
2024/01/30 00:51:00;;;;;;;0.00;0.00;;;;;;;8.65;100.00;100835.63;6075727;23;20017;-76
2024/01/30 00:53:37;;;;;;;0.00;0.00;;;;;;;8.49;100.00;100807.22;6051444;23;20027;-76
2024/01/30 00:56:03;;;;;;;0.00;0.00;;;;;;;8.67;100.00;100831.59;6050781;23;20520;-75
2024/01/30 01:02:43;;;;;;;0.00;0.00;;;;;;;8.80;100.00;100824.16;6077648;23;20023;-76
2024/01/30 01:05:21;;;;;;;0.00;0.00;;;;;;;8.66;100.00;100807.25;6054669;23;20208;-75
2024/01/30 01:07:49;;;;;;;0.00;0.00;;;;;;;8.66;100.00;100804.53;6055158;23;20048;-74
2024/01/30 01:10:17;;;;;;;0.00;0.00;;;;;;;8.59;100.00;100798.44;6102464;23;20049;-73
2024/01/30 01:12:43;;;;;;;0.10;0.10;;;;;;;8.69;100.00;100821.25;6078087;23;20006;-76
2024/01/30 01:15:29;;;;;;;0.00;0.00;;;;;;;8.70;100.00;100832.97;6100851;23;20094;-76
2024/01/30 01:18:00;;;;;;;0.00;0.00;;;;;;;8.68;100.00;100837.84;6075061;23;20013;-75
2024/01/30 01:21:09;;;;;;;0.00;0.00;;;;;;;8.44;100.00;100788.00;6074644;23;20030;-75
2024/01/30 01:23:49;;;;;;;;;;;;;;;;;;;;;
2024/01/30 01:26:33;;;;;;;0.00;0.00;;;;;;;8.36;100.00;100783.78;6101636;23;20033;-76
2024/01/30 01:29:11;;;;;;;;;;;;;;;;;;;;;
2024/01/30 01:31:43;;;;;;;0.00;0.00;;;;;;;8.59;100.00;100807.44;6102656;23;20022;-76
2024/01/30 01:34:12;;;;;;;0.00;0.00;;;;;;;8.41;100.00;100770.25;6101098;23;20038;-76
2024/01/30 01:36:39;;;;;;;0.00;0.00;;;;;;;8.56;100.00;100791.56;6103973;23;20327;-74
2024/01/30 01:39:04;;;;;;;0.00;0.00;;;;;;;8.44;100.00;100769.81;6080643;23;20553;-75
2024/01/30 01:41:36;;;;;;;0.00;0.00;;;;;;;8.47;100.00;100777.50;6105315;23;20006;-74
2024/01/30 01:44:11;;;;;;;0.00;0.00;;;;;;;8.43;100.00;100757.22;6053075;23;19995;-75
2024/01/30 01:46:49;;;;;;;0.00;0.00;;;;;;;8.48;100.00;100768.22;6096063;23;20011;-76
2024/01/30 01:49:19;;;;;;;0.00;0.00;;;;;;;8.34;100.00;100747.78;6070794;23;20006;-76
2024/01/30 01:51:47;;;;;;;0.10;0.10;;;;;;;8.73;100.00;100824.31;6097666;23;19994;-75
2024/01/30 01:54:15;;;;;;;0.00;0.00;;;;;;;8.66;100.00;100805.38;6073199;23;20014;-77
2024/01/30 01:56:44;;;;;;;0.00;0.00;;;;;;;8.67;100.00;100811.66;6075494;23;20006;-75
2024/01/30 01:59:10;;;;;;;0.00;0.00;;;;;;;8.88;100.00;100831.97;6068462;23;20326;-75
2024/01/30 02:01:46;;;;;;;0.00;0.00;;;;;;;8.67;100.00;100785.22;6070727;23;20006;-75
2024/01/30 02:04:13;;;;;;;0.00;0.00;;;;;;;8.87;100.00;100806.56;6069539;23;20090;-76
2024/01/30 02:06:45;;;;;;;0.00;0.00;;;;;;;8.94;100.00;100820.06;6046845;23;20021;-76
2024/01/30 02:09:11;;;;;;;0.00;0.00;;;;;;;8.69;100.00;100779.53;6069087;23;20007;-75
2024/01/30 02:11:44;;;;;;;0.08;0.08;;;;;;;8.67;100.00;100777.06;6069120;23;20006;-77
2024/01/30 02:14:22;;;;;;;;;;;;;;;;;;;;;
2024/01/30 02:16:55;;;;;;;0.00;0.00;;;;;;;8.80;100.00;100822.25;6069709;23;20049;-76
2024/01/30 02:19:39;;;;;;;;;;;;;;;;;;;;;
2024/01/30 02:22:09;;;;;;;0.00;0.00;;;;;;;8.72;100.00;100819.94;6067913;23;20038;-75
2024/01/30 02:24:34;;;;;;;0.00;0.00;;;;;;;8.81;100.00;100840.28;6045473;23;20676;-75
2024/01/30 02:27:00;;;;;;;0.00;0.00;;;;;;;8.89;100.00;100845.34;6066670;23;20038;-75
2024/01/30 02:29:25;;;;;;;0.00;0.00;;;;;;;9.12;100.00;100884.50;6071039;23;20015;-75
2024/01/30 02:31:52;;;;;;;0.00;0.00;;;;;;;9.06;100.00;100897.19;6068811;23;20039;-76
2024/01/30 02:34:19;;;;;;;0.00;0.00;;;;;;;8.90;100.00;100868.81;6065328;23;20022;-76
2024/01/30 02:37:02;;;;;;;0.00;0.00;;;;;;;8.91;100.00;100883.28;6071280;23;20032;-76
2024/01/30 02:39:30;;;;;;;0.00;0.00;;;;;;;8.53;100.00;100852.00;6067260;23;20154;-76
2024/01/30 02:41:56;;;;;;;0.00;0.00;;;;;;;8.44;100.00;100881.53;6043686;23;20034;-76
2024/01/30 02:44:38;;;;;;;0.00;0.00;;;;;;;8.16;100.00;100860.47;6066124;23;20411;-77
2024/01/30 02:47:34;;;;;;;;;;;;;;;;;;;;;
2024/01/30 02:49:58;;;;;;;0.00;0.00;;;;;;;7.81;100.00;100856.72;6062588;23;20066;-77
2024/01/30 02:52:24;;;;;;;0.00;0.00;;;;;;;7.84;100.00;100871.72;6042998;23;20015;-76
2024/01/30 02:54:52;;;;;;;0.00;0.00;;;;;;;7.68;100.00;100852.34;6067378;23;20007;-77
2024/01/30 02:57:26;;;;;;;0.00;0.00;;;;;;;7.77;100.00;100882.75;6067109;23;20071;-76
2024/01/30 03:00:07;;;;;;;;;;;;;;;;;;;;;
2024/01/30 03:02:43;;;;;;;;;;;;;;;;;;;;;
2024/01/30 03:05:11;;;;;;;0.00;0.00;;;;;;;7.45;100.00;100913.00;6069383;23;20071;-76
2024/01/30 03:07:48;;;;;;;0.00;0.00;;;;;;;7.43;100.00;100917.00;6043608;23;20015;-76
2024/01/30 03:10:14;;;;;;;0.00;0.00;;;;;;;7.31;100.00;100908.81;6047483;23;20011;-75
2024/01/30 03:12:39;;;;;;;0.00;0.00;;;;;;;7.24;100.00;100894.50;6069182;23;20007;-75
2024/01/30 03:15:05;;;;;;;0.00;0.00;;;;;;;7.39;100.00;100962.94;6043484;23;20007;-77
2024/01/30 03:17:30;;;;;;;0.03;0.03;;;;;;;7.36;100.00;100941.63;6069124;23;20086;-75
2024/01/30 03:19:56;;;;;;;0.10;0.10;;;;;;;7.28;100.00;100947.38;6044000;23;20017;-75
2024/01/30 03:22:44;;;;;;;0.00;0.00;;;;;;;7.21;100.00;100922.16;6045055;23;20007;-76
2024/01/30 03:25:10;;;;;;;0.00;0.00;;;;;;;7.40;100.00;100953.69;6069584;23;20095;-76
2024/01/30 03:27:47;;;;;;;0.00;0.00;;;;;;;7.23;100.00;100920.03;6072198;23;20086;-77
2024/01/30 03:30:15;;;;;;;0.00;0.00;;;;;;;7.23;100.00;100931.75;6069872;23;20003;-76
2024/01/30 03:32:41;;;;;;;0.00;0.00;;;;;;;7.23;100.00;100925.47;6073358;23;20009;-76
2024/01/30 03:35:19;;;;;;;;;;;;;;;;;;;;;
2024/01/30 03:37:45;;;;;;;0.00;0.00;;;;;;;7.27;100.00;100967.47;6072215;23;20050;-75
2024/01/30 03:40:11;;;;;;;0.00;0.00;;;;;;;7.15;100.00;100948.41;6067671;23;20018;-75
2024/01/30 03:42:36;;;;;;;0.10;0.10;;;;;;;7.17;100.00;100976.22;6071384;23;20059;-75
2024/01/30 03:45:02;;;;;;;0.00;0.00;;;;;;;7.19;100.00;100982.25;6068208;23;20042;-75
2024/01/30 03:47:28;;;;;;;0.00;0.00;;;;;;;7.13;100.00;100981.25;6071180;23;20327;-75
2024/01/30 03:49:53;;;;;;;0.10;0.10;;;;;;;7.13;100.00;100981.25;6048569;23;20050;-76
2024/01/30 03:52:19;;;;;;;0.00;0.00;;;;;;;6.98;100.00;100961.81;6072201;23;20074;-75
2024/01/30 03:54:44;;;;;;;0.00;0.00;;;;;;;6.99;100.00;100968.88;6024932;23;20078;-75
2024/01/30 03:57:10;;;;;;;0.00;0.00;;;;;;;7.07;100.00;100979.47;6047085;23;20011;-75
2024/01/30 03:59:35;;;;;;;0.00;0.00;;;;;;;7.05;100.00;100988.91;6045335;23;20023;-75
2024/01/30 04:02:01;;;;;;;0.00;0.00;;;;;;;6.84;100.00;100965.75;6066948;23;20015;-75
2024/01/30 04:04:26;;;;;;;0.00;0.00;;;;;;;6.93;100.00;100972.53;6045980;23;20525;-75
2024/01/30 04:06:52;;;;;;;0.00;0.00;;;;;;;6.81;100.00;100956.16;6068626;23;20095;-74
2024/01/30 04:09:17;;;;;;;0.00;0.00;;;;;;;6.61;100.00;100948.22;6067917;23;20021;-75
2024/01/30 04:11:43;;;;;;;0.00;0.00;;;;;;;6.65;100.00;100973.91;6045421;23;20090;-76
2024/01/30 04:14:09;;;;;;;0.10;0.10;;;;;;;6.80;100.00;101020.59;6067263;23;20936;-77
2024/01/30 04:16:36;;;;;;;0.00;0.00;;;;;;;6.78;100.00;101017.25;6069137;23;20134;-75
2024/01/30 04:19:02;;;;;;;0.00;0.00;;;;;;;6.85;100.00;101027.19;6044211;23;20505;-75
2024/01/30 04:21:27;;;;;;;0.00;0.00;;;;;;;6.88;100.00;101027.59;6069127;23;20090;-74
2024/01/30 04:23:53;;;;;;;0.00;0.00;;;;;;;6.89;100.00;101017.53;6067388;23;20074;-74
2024/01/30 04:26:18;;;;;;;0.00;0.00;;;;;;;6.95;100.00;101032.94;6067026;23;20019;-74
2024/01/30 04:28:47;;;;;;;0.00;0.00;;;;;;;6.76;100.00;101024.81;6042439;23;20015;-75
2024/01/30 04:31:15;;;;;;;0.00;0.00;;;;;;;6.78;100.00;101032.72;6045079;23;20018;-74
2024/01/30 04:33:40;;;;;;;0.00;0.00;;;;;;;6.79;100.00;101048.81;6070273;23;20010;-77
2024/01/30 04:36:09;;;;;;;0.00;0.00;;;;;;;6.70;100.00;101031.16;6070406;23;20236;-75
2024/01/30 04:38:35;;;;;;;0.03;0.03;;;;;;;6.73;100.00;101054.31;6073120;23;20007;-77
2024/01/30 04:41:00;;;;;;;0.00;0.00;;;;;;;6.79;100.00;101067.00;6071112;23;20013;-77
2024/01/30 04:43:27;;;;;;;0.00;0.00;;;;;;;6.78;100.00;101065.34;6020490;23;19999;-76
2024/01/30 04:45:52;;;;;;;0.00;0.00;;;;;;;6.61;100.00;101044.19;6046469;23;20011;-76
2024/01/30 04:48:18;;;;;;;0.00;0.00;;;;;;;6.73;100.00;101089.66;6065468;23;20015;-76
2024/01/30 04:50:43;;;;;;;0.00;0.00;;;;;;;6.53;100.00;101052.63;6045193;23;20046;-75
2024/01/30 04:53:11;;;;;;;0.00;0.00;;;;;;;6.63;100.00;101084.75;6068172;23;20019;-76
2024/01/30 04:55:36;;;;;;;0.00;0.00;;;;;;;6.65;100.00;101093.50;6071048;23;20081;-75
2024/01/30 04:58:01;;;;;;;0.00;0.00;;;;;;;6.62;100.00;101100.19;6070702;23;20027;-76
2024/01/30 05:00:27;;;;;;;0.10;0.10;;;;;;;6.61;100.00;101093.13;6089438;23;20026;-75
2024/01/30 05:02:52;;;;;;;0.10;0.10;;;;;;;6.64;100.00;101099.97;6052758;23;20021;-75
2024/01/30 05:05:18;;;;;;;0.00;0.00;;;;;;;6.70;100.00;101111.84;6070597;23;20092;-75
2024/01/30 05:07:43;;;;;;;0.00;0.00;;;;;;;6.67;100.00;101102.25;6050734;23;20006;-75
2024/01/30 05:10:09;;;;;;;0.00;0.00;;;;;;;6.71;100.00;101119.78;6072253;23;20020;-75
2024/01/30 05:12:37;;;;;;;0.00;0.00;;;;;;;6.74;100.00;101124.75;6071984;23;20037;-76
2024/01/30 05:15:02;;;;;;;0.00;0.00;;;;;;;6.68;100.00;101125.66;6026681;23;20054;-75
2024/01/30 05:17:30;;;;;;;0.00;0.00;;;;;;;6.64;100.00;101113.56;6075446;23;20042;-76
2024/01/30 05:19:55;;;;;;;0.00;0.00;;;;;;;6.63;100.00;101103.78;6074279;23;20081;-75
2024/01/30 05:22:21;;;;;;;0.00;0.00;;;;;;;6.75;100.00;101115.56;6070646;23;20006;-75
2024/01/30 05:24:48;;;;;;;0.00;0.00;;;;;;;6.72;100.00;101120.63;6074242;23;20014;-75
2024/01/30 05:27:14;;;;;;;0.00;0.00;;;;;;;6.51;100.00;101086.50;6069437;23;20117;-75
2024/01/30 05:29:43;;;;;;;0.00;0.00;;;;;;;6.53;100.00;101100.72;6074579;23;20453;-75
2024/01/30 05:32:10;;;;;;;0.00;0.00;;;;;;;6.73;100.00;101134.00;6097569;23;19998;-75
2024/01/30 05:34:36;;;;;;;0.00;0.00;;;;;;;6.44;100.00;101084.69;6070318;23;20007;-75
2024/01/30 05:37:19;;;;;;;;;;;;;;;;;;;;;
2024/01/30 05:39:45;;;;;;;0.00;0.00;;;;;;;6.44;100.00;101086.59;6095996;23;20054;-75
2024/01/30 05:42:13;;;;;;;0.00;0.00;;;;;;;6.42;100.00;101108.50;6075392;23;19998;-75
2024/01/30 05:44:38;;;;;;;0.00;0.00;;;;;;;6.74;100.00;101151.94;6074122;23;20006;-76
2024/01/30 05:47:04;;;;;;;0.00;0.00;;;;;;;6.75;100.00;101159.06;6096104;23;20114;-75
2024/01/30 05:49:32;;;;;;;0.00;0.00;;;;;;;6.76;100.00;101155.28;6097876;23;20010;-76
2024/01/30 05:51:58;;;;;;;0.00;0.00;;;;;;;6.61;100.00;101135.75;6096908;23;20037;-75
2024/01/30 05:54:23;;;;;;;0.00;0.00;;;;;;;6.66;100.00;101149.53;6098799;23;19994;-76
2024/01/30 05:56:49;;;;;;;0.05;0.05;;;;;;;6.71;100.00;101174.13;6071623;23;20006;-75
2024/01/30 05:59:14;;;;;;;0.00;0.00;;;;;;;6.74;100.00;101172.88;6098486;23;20041;-75
2024/01/30 06:01:46;;;;;;;0.00;0.00;;;;;;;6.77;100.00;101178.69;6047693;23;20011;-76
2024/01/30 06:04:12;;;;;;;0.00;0.00;;;;;;;6.85;100.00;101184.88;6048773;23;20017;-76
2024/01/30 06:06:39;;;;;;;0.00;0.00;;;;;;;6.79;100.00;101184.75;6071748;23;20097;-77
2024/01/30 06:09:06;;;;;;;0.00;0.00;;;;;;;6.78;100.00;101198.56;6046797;23;20026;-76
2024/01/30 06:11:31;;;;;;;0.00;0.00;;;;;;;6.69;100.00;101191.72;6097998;23;20006;-76
2024/01/30 06:13:59;;;;;;;0.00;0.00;;;;;;;6.76;100.00;101209.66;6046144;23;20014;-76
2024/01/30 06:16:29;;;;;;;0.00;0.00;;;;;;;6.84;100.00;101222.13;6024689;23;20019;-75
2024/01/30 06:18:55;;;;;;;0.00;0.00;;;;;;;6.72;100.00;101196.72;6096630;23;20010;-76
2024/01/30 06:21:21;;;;;;;0.00;0.00;;;;;;;6.88;100.00;101234.22;6072288;23;19994;-75
2024/01/30 06:23:46;;;;;;;0.00;0.00;;;;;;;6.78;100.00;101218.41;6070985;23;20033;-76
2024/01/30 06:26:12;;;;;;;0.00;0.00;;;;;;;6.88;100.00;101234.22;6049840;23;20516;-76
2024/01/30 06:28:37;;;;;;;0.00;0.00;;;;;;;6.68;100.00;101201.75;6093552;23;20014;-76
2024/01/30 06:31:05;;;;;;;0.00;0.00;;;;;;;6.76;100.00;101220.53;6097760;23;20015;-75
2024/01/30 06:33:30;;;;;;;0.00;0.00;;;;;;;6.81;100.00;101237.00;6048868;23;20049;-76
2024/01/30 06:35:56;;;;;;;0.00;0.00;;;;;;;6.88;100.00;101255.13;6051335;23;20094;-77
2024/01/30 06:38:21;;;;;;;0.00;0.00;;;;;;;6.93;100.00;101274.34;6046756;23;20011;-75
2024/01/30 06:40:47;;;;;;;0.00;0.00;;;;;;;6.80;100.00;101239.94;6049661;23;20113;-77
2024/01/30 06:43:12;;;;;;;0.10;0.10;;;;;;;6.80;100.00;101248.94;6094833;23;20073;-76
2024/01/30 06:45:38;;;;;;;0.00;0.00;;;;;;;6.86;100.00;101268.13;6072333;23;20016;-75
2024/01/30 06:48:03;;;;;;;0.00;0.00;;;;;;;6.81;100.00;101255.19;6072035;23;20374;-77
2024/01/30 06:50:29;;;;;;;0.00;0.00;;;;;;;6.79;100.00;101269.00;6025645;23;20018;-77
2024/01/30 06:52:54;;;;;;;0.00;0.00;;;;;;;6.79;100.00;101285.31;6047794;23;20088;-77
2024/01/30 06:55:20;;;;;;;0.00;0.00;;;;;;;6.72;100.00;101268.22;6095657;23;20017;-75
2024/01/30 06:57:47;;;;;;;0.00;0.00;;;;;;;6.93;100.00;101299.66;6023904;23;20007;-76
2024/01/30 07:00:20;;;;;;;0.00;0.00;;;;;;;6.95;100.00;101300.28;6071691;23;20151;-75
2024/01/30 07:02:45;;;;;;;0.00;0.00;;;;;;;6.89;100.00;101293.00;6074092;23;20022;-77
2024/01/30 07:05:23;;;;;;;0.10;0.10;;;;;;;6.79;100.00;101284.47;6025879;23;20068;-77
2024/01/30 07:07:49;;;;;;;0.00;0.00;;;;;;;6.79;100.00;101290.75;6049452;23;20014;-75
2024/01/30 07:10:23;;;;;;;0.00;0.00;;;;;;;6.69;100.00;101290.41;6096643;23;20333;-76
2024/01/30 07:12:53;;;;;;;0.03;0.03;;;;;;;6.60;100.00;101280.84;6051378;23;20097;-77
2024/01/30 07:15:42;;;;;;;0.00;0.00;;;;;;;6.60;100.00;101292.56;6070819;23;20018;-75
2024/01/30 07:18:09;;;;;;;0.00;0.00;;;;;;;6.82;100.00;101328.38;6073317;23;20022;-76
2024/01/30 07:20:52;;;;;;;0.00;0.00;;;;;;;6.66;100.00;101312.59;6074853;23;20010;-75
2024/01/30 07:23:18;;;;;;;0.10;0.10;;;;;;;6.57;100.00;101306.59;6052267;23;20002;-74
2024/01/30 07:25:44;;;;;;;0.10;0.10;;;;;;;6.58;100.00;101318.28;6073590;23;20006;-76
2024/01/30 07:28:40;;;;;;;0.00;0.00;;;;;;;6.62;100.00;101343.97;6044892;23;20013;-73
2024/01/30 07:31:13;;;;;;;0.00;0.00;;;;;;;6.53;100.00;101328.97;6020139;23;20024;-72
2024/01/30 07:33:39;;;;;;;0.00;0.00;;;;;;;6.47;100.00;101336.94;6097638;23;20433;-73
2024/01/30 07:36:05;;;;;;;0.00;0.00;;;;;;;6.39;100.00;101334.47;6093637;23;20094;-75
2024/01/30 07:38:34;;;;;;;0.00;0.00;;;;;;;6.37;100.00;101358.31;6044731;23;20429;-75
2024/01/30 07:58:47;;;;;;;0.10;0.10;;;;;;;6.31;100.00;101370.03;6098643;23;20029;-77
2024/01/30 08:01:12;;;;;;;0.10;0.10;;;;;;;6.07;100.00;101331.66;6011009;23;20032;-75
2024/01/30 08:03:48;;;;;;;0.00;0.00;;;;;;;6.24;100.00;101361.06;5959245;23;20689;-76
2024/01/30 08:06:18;;;;;;;0.00;0.00;;;;;;;6.50;100.00;101400.03;6087605;23;20010;-76
2024/01/30 08:08:43;;;;;;;0.00;0.00;;;;;;;6.15;100.00;101349.63;6025461;23;20397;-74
2024/01/30 08:11:10;;;;;;;0.00;0.00;;;;;;;6.45;100.00;101406.97;6072478;23;20025;-74
2024/01/30 08:13:35;;;;;;;0.00;0.00;;;;;;;6.29;100.00;101394.69;6096078;23;20513;-75
2024/01/30 08:16:01;;;;;;;0.00;0.00;;;;;;;6.41;100.00;101405.75;6048002;23;20105;-74
2024/01/30 08:18:26;;;;;;;0.00;0.00;;;;;;;6.53;100.00;101416.78;6023095;23;20014;-74
2024/01/30 08:20:52;;;;;;;0.00;0.00;;;;;;;6.54;100.00;101407.56;6046849;23;20006;-74
2024/01/30 08:23:17;;;;;;;0.00;0.00;;;;;;;6.59;100.00;101425.94;6022466;23;20018;-73
2024/01/30 08:25:45;;;;;;;0.00;0.00;;;;;;;6.68;100.00;101435.53;6048888;23;20048;-74
2024/01/30 08:28:10;;;;;;;0.10;0.10;;;;;;;6.68;100.00;101432.81;6023209;23;20011;-74
2024/01/30 08:30:35;;;;;;;0.00;0.00;;;;;;;6.79;100.00;101443.00;6045938;23;20089;-74
2024/01/30 08:33:01;;;;;;;0.00;0.00;;;;;;;6.90;100.00;101448.81;6046388;23;20655;-75
2024/01/30 08:35:26;;;;;;;0.00;0.00;;;;;;;6.96;100.00;101454.22;6072580;23;20369;-74
2024/01/30 08:37:52;;;;;;;0.00;0.00;;;;;;;6.90;100.00;101443.38;6022163;23;20472;-75
2024/01/30 08:40:17;;;;;;;0.00;0.00;;;;;;;6.97;100.00;101463.22;6048769;23;20010;-74
2024/01/30 08:42:43;;;;;;;0.00;0.00;;;;;;;6.88;100.00;101456.34;6026379;23;20013;-75
2024/01/30 08:45:09;;;;;;;0.00;0.00;;;;;;;6.93;100.00;101470.13;6045948;23;20018;-75
2024/01/30 08:47:34;;;;;;;0.00;0.00;;;;;;;6.95;100.00;101473.47;6046065;23;20010;-75
2024/01/30 08:50:00;;;;;;;0.00;0.00;;;;;;;6.86;100.00;101474.75;6065412;23;20014;-75
2024/01/30 08:52:25;;;;;;;0.00;0.00;;;;;;;6.78;100.00;101471.25;6069314;23;20024;-75
2024/01/30 08:54:51;;;;;;;0.00;0.00;;;;;;;6.82;100.00;101486.06;6049003;23;20017;-75
2024/01/30 08:57:16;;;;;;;0.00;0.00;;;;;;;6.81;100.00;101492.56;6070265;23;20006;-75
2024/01/30 08:59:44;;;;;;;0.00;0.00;;;;;;;6.81;100.00;101489.00;6063407;23;20459;-75
2024/01/30 09:02:10;;;;;;;0.00;0.00;;;;;;;6.90;100.00;101493.16;6019569;23;20014;-76
2024/01/30 09:04:35;;;;;;;0.00;0.00;;;;;;;6.89;100.00;101485.22;6041311;23;20070;-74
2024/01/30 09:07:01;;;;;;;0.00;0.00;;;;;;;6.87;100.00;101477.28;6022199;23;20023;-76
2024/01/30 09:09:26;;;;;;;0.00;0.00;;;;;;;7.02;100.00;101484.31;6044774;23;20018;-75
2024/01/30 09:11:51;;;;;;;0.00;0.00;;;;;;;7.25;100.00;101500.13;6064796;23;20032;-76
2024/01/30 09:14:17;;;;;;;0.00;0.00;;;;;;;7.32;99.20;101498.19;6032039;23;20097;-74
2024/01/30 09:16:45;;;;;;;0.00;0.00;;;;;;;7.38;97.50;101502.75;6074351;23;20010;-75
2024/01/30 09:19:10;;;;;;;0.10;0.10;;;;;;;7.46;97.33;101510.69;6079320;23;20089;-75
2024/01/30 09:21:35;;;;;;;0.00;0.00;;;;;;;7.53;96.63;101507.06;6073022;23;20018;-74
2024/01/30 09:24:05;;;;;;;0.00;0.00;;;;;;;7.57;95.48;101519.19;6051357;23;20011;-75
2024/01/30 09:26:31;;;;;;;0.00;0.00;;;;;;;7.48;95.72;101508.56;6049496;23;20007;-77
2024/01/30 09:28:56;;;;;;;0.00;0.00;;;;;;;7.51;95.29;101519.00;6067714;23;20066;-77
2024/01/30 09:31:22;;;;;;;0.00;0.00;;;;;;;7.61;93.85;101536.75;6044050;23;20014;-73
2024/01/30 09:33:51;;;;;;;0.00;0.00;;;;;;;7.62;94.73;101539.25;6043742;23;20014;-76
2024/01/30 09:36:18;;;;;;;0.00;0.00;;;;;;;7.67;94.52;101541.31;6046708;23;20013;-75
2024/01/30 09:38:44;;;;;;;0.00;0.00;;;;;;;7.68;93.63;101542.97;6067745;23;20017;-75
2024/01/30 09:41:11;;;;;;;0.00;0.00;;;;;;;7.48;93.34;101514.00;6043155;23;20007;-73
2024/01/30 09:43:38;;;;;;;0.05;0.05;;;;;;;7.73;93.24;101548.59;6018577;23;20434;-74
2024/01/30 09:46:05;;;;;;;0.10;0.10;;;;;;;7.75;92.52;101554.66;6044923;23;20011;-74
2024/01/30 09:48:32;;;;;;;0.00;0.00;;;;;;;7.85;92.20;101549.56;6042680;23;20131;-75
2024/01/30 09:50:57;;;;;;;0.00;0.00;;;;;;;8.14;91.43;101546.44;6066444;23;20338;-75
2024/01/30 09:53:23;;;;;;;0.00;0.00;;;;;;;8.24;88.80;101563.09;6035571;23;20011;-75
2024/01/30 09:55:50;;;;;;;0.00;0.00;;;;;;;8.42;89.12;101581.41;6044365;23;20011;-75
2024/01/30 09:58:16;;;;;;;0.00;0.00;;;;;;;8.77;87.34;101578.16;6042503;23;20003;-74
2024/01/30 10:00:43;;;;;;;0.00;0.00;;;;;;;9.00;85.63;101576.66;6065654;23;20033;-75
2024/01/30 10:03:10;;;;;;;0.00;0.00;;;;;;;9.25;83.17;101593.78;6043172;23;20021;-75
2024/01/30 10:05:37;;;;;;;0.00;0.00;;;;;;;9.39;83.13;101597.19;6068792;23;20017;-75
2024/01/30 10:08:06;;;;;;;0.00;0.00;;;;;;;9.32;82.12;101606.53;6044036;23;19991;-75
2024/01/30 10:10:32;;;;;;;0.00;0.00;;;;;;;8.98;82.07;101606.06;6067410;23;20003;-74
2024/01/30 10:12:57;;;;;;;0.00;0.00;;;;;;;8.67;83.75;101605.13;6044265;23;20379;-74
2024/01/30 10:15:24;;;;;;;0.00;0.00;;;;;;;8.55;84.27;101608.56;6067643;23;20343;-76
2024/01/30 10:17:49;;;;;;;0.00;0.00;;;;;;;8.43;84.18;101614.97;6043886;23;20065;-75
2024/01/30 10:20:14;;;;;;;0.00;0.00;;;;;;;8.48;84.86;101626.88;6017135;23;20014;-74
2024/01/30 10:22:44;;;;;;;0.00;0.00;;;;;;;8.65;84.84;101623.59;6041638;23;20065;-74
2024/01/30 10:25:10;;;;;;;0.00;0.00;;;;;;;8.89;83.98;101625.47;6065892;23;20134;-76
2024/01/30 10:27:36;;;;;;;0.00;0.00;;;;;;;9.14;83.72;101631.91;6065668;23;20011;-74
2024/01/30 10:30:03;;;;;;;0.00;0.00;;;;;;;9.39;81.96;101634.59;6045278;23;20021;-75
2024/01/30 10:32:29;;;;;;;0.00;0.00;;;;;;;9.64;81.46;101631.75;6066895;23;20033;-75
2024/01/30 10:34:54;;;;;;;0.00;0.00;;;;;;;9.69;79.99;101639.25;6043185;23;20011;-75
2024/01/30 10:37:25;;;;;;;0.00;0.00;;;;;;;9.64;79.19;101636.34;6043761;23;20003;-75
2024/01/30 10:39:53;;;;;;;0.00;0.00;;;;;;;9.62;79.82;101658.44;6071170;23;20002;-75
2024/01/30 10:42:18;;;;;;;0.00;0.00;;;;;;;9.50;79.53;101669.28;6042545;23;20011;-75
2024/01/30 10:44:51;;;;;;;0.00;0.00;;;;;;;9.12;80.53;101656.69;6043338;23;20013;-74
2024/01/30 10:47:22;;;;;;;0.00;0.00;;;;;;;9.11;81.39;101663.22;6068913;23;20046;-75
2024/01/30 10:49:50;;;;;;;0.00;0.00;;;;;;;9.07;81.57;101681.13;6066215;23;20006;-74
2024/01/30 10:52:17;;;;;;;0.00;0.00;;;;;;;8.95;81.88;101677.44;6046623;23;20026;-74
2024/01/30 10:54:44;;;;;;;0.00;0.00;;;;;;;8.81;82.16;101669.38;6071091;23;20017;-74
2024/01/30 10:57:12;;;;;;;0.00;0.00;;;;;;;8.89;82.77;101682.75;6041383;23;20006;-74
2024/01/30 10:59:38;;;;;;;0.00;0.00;;;;;;;8.86;82.93;101682.34;6068117;23;20195;-74
2024/01/30 11:02:05;;;;;;;0.00;0.00;;;;;;;8.72;83.04;101674.28;6069470;23;20014;-74
2024/01/30 11:04:37;;;;;;;0.00;0.00;;;;;;;8.77;82.97;101692.72;6041637;23;20155;-74
2024/01/30 11:07:14;;;;;;;0.00;0.00;;;;;;;8.62;83.12;101694.94;6070297;23;20003;-75
2024/01/30 11:09:46;;;;;;;0.00;0.00;;;;;;;8.64;84.15;101710.00;6069802;23;20011;-74
2024/01/30 11:12:12;;;;;;;0.00;0.00;;;;;;;8.60;84.49;101691.59;6020163;23;20006;-74
2024/01/30 11:14:40;;;;;;;0.00;0.00;;;;;;;8.67;83.96;101703.28;6068262;23;20029;-74
2024/01/30 11:17:05;;;;;;;0.00;0.00;;;;;;;8.64;83.17;101709.19;6065725;23;20345;-74
2024/01/30 11:19:33;;;;;;;0.00;0.00;;;;;;;8.53;83.68;101706.13;6066907;23;20041;-75
2024/01/30 11:21:59;;;;;;;0.10;0.10;;;;;;;8.67;84.20;101709.59;6060006;23;20018;-73
2024/01/30 11:24:26;;;;;;;0.00;0.00;;;;;;;8.57;83.02;101692.88;6069483;23;20062;-75
2024/01/30 11:26:58;;;;;;;0.00;0.00;;;;;;;8.56;83.79;101716.56;6064865;23;20022;-73
2024/01/30 11:29:28;;;;;;;0.00;0.00;;;;;;;8.51;84.62;101713.69;6068435;23;20006;-73
2024/01/30 11:31:55;;;;;;;0.10;0.10;;;;;;;8.40;84.16;101703.47;6042770;23;20015;-74
2024/01/30 11:34:22;;;;;;;0.00;0.00;;;;;;;8.38;84.29;101716.44;6071517;23;20088;-74
2024/01/30 11:36:58;;;;;;;0.00;0.00;;;;;;;8.26;83.98;101701.88;6045561;23;20014;-75
2024/01/30 11:39:29;;;;;;;0.00;0.00;;;;;;;8.27;84.38;101718.00;6070882;23;20007;-73
2024/01/30 11:41:55;;;;;;;0.00;0.00;;;;;;;8.25;84.52;101722.84;6070140;23;19999;-74
2024/01/30 11:44:21;;;;;;;0.00;0.00;;;;;;;8.38;84.91;101732.81;6068864;23;20007;-74
2024/01/30 11:46:50;;;;;;;0.00;0.00;;;;;;;8.38;84.63;101717.31;6069759;23;20002;-74
2024/01/30 11:49:19;;;;;;;0.00;0.00;;;;;;;8.51;83.88;101716.41;6067445;23;20148;-75
2024/01/30 11:51:52;;;;;;;0.00;0.00;;;;;;;8.55;83.64;101728.53;6066807;23;20015;-75
2024/01/30 11:54:18;;;;;;;0.00;0.00;;;;;;;8.62;84.04;101720.31;6067492;23;20086;-75
2024/01/30 11:56:43;;;;;;;0.00;0.00;;;;;;;8.65;82.73;101699.94;6046324;23;20007;-74
2024/01/30 11:59:09;;;;;;;0.00;0.00;;;;;;;8.79;82.38;101717.88;6043952;23;20453;-74
2024/01/30 12:01:35;;;;;;;0.00;0.00;;;;;;;8.97;81.64;101725.28;6048681;23;20388;-74
2024/01/30 12:04:00;;;;;;;0.10;0.10;;;;;;;8.96;81.51;101733.69;6074078;23;20338;-75
2024/01/30 12:06:26;;;;;;;0.00;0.00;;;;;;;8.85;81.18;101722.44;6027837;23;20014;-74
2024/01/30 12:09:08;;;;;;;0.00;0.00;;;;;;;8.94;81.63;101724.91;6044622;23;20097;-75